createdAt,value
2022-09-17T00:01:31.106Z,99.90
2022-09-17T00:04:04.109Z,99.90
2022-09-17T00:06:35.679Z,99.90
2022-09-17T00:09:06.025Z,99.90
2022-09-17T00:11:38.485Z,99.90
2022-09-17T00:14:09.973Z,99.90
2022-09-17T00:16:43.319Z,99.90
2022-09-17T00:19:19.445Z,99.90
2022-09-17T00:21:47.351Z,99.90
2022-09-17T00:24:18.409Z,99.90
2022-09-17T00:26:46.540Z,99.90
2022-09-17T00:29:13.602Z,99.90
2022-09-17T00:31:40.904Z,99.90
2022-09-17T00:34:08.534Z,99.90
2022-09-17T00:36:38.717Z,99.90
2022-09-17T00:39:09.951Z,99.90
2022-09-17T00:41:39.070Z,99.90
2022-09-17T00:44:55.841Z,99.90
2022-09-17T00:47:33.190Z,99.90
2022-09-17T00:50:28.821Z,99.90
2022-09-17T00:53:20.550Z,99.90
2022-09-17T00:56:29.767Z,99.90
2022-09-17T00:58:57.729Z,99.90
2022-09-17T01:01:24.828Z,99.90
2022-09-17T01:03:51.795Z,99.90
2022-09-17T01:06:34.535Z,99.90
2022-09-17T01:09:45.042Z,99.90
2022-09-17T01:13:06.178Z,99.90
2022-09-17T01:16:00.459Z,99.90
2022-09-17T01:18:47.498Z,99.90
2022-09-17T01:21:39.922Z,99.90
2022-09-17T01:24:37.215Z,99.90
2022-09-17T01:27:45.621Z,99.90
2022-09-17T01:30:54.734Z,99.90
2022-09-17T01:34:11.035Z,99.90
2022-09-17T01:37:27.729Z,99.90
2022-09-17T01:40:24.349Z,99.90
2022-09-17T01:43:41.079Z,99.90
2022-09-17T01:46:40.650Z,99.90
2022-09-17T01:49:12.391Z,99.90
2022-09-17T01:51:46.976Z,99.90
2022-09-17T01:54:42.455Z,99.90
2022-09-17T01:57:25.839Z,99.90
2022-09-17T02:00:05.995Z,99.90
2022-09-17T02:02:57.759Z,99.90
2022-09-17T02:05:51.544Z,99.90
2022-09-17T02:08:23.635Z,99.90
2022-09-17T02:11:16.947Z,99.90
2022-09-17T02:14:21.367Z,99.90
2022-09-17T02:17:00.463Z,99.90
2022-09-17T02:19:38.516Z,99.90
2022-09-17T02:22:44.944Z,99.90
2022-09-17T02:25:24.432Z,99.90
2022-09-17T02:28:31.100Z,99.90
2022-09-17T02:30:58.088Z,99.90
2022-09-17T02:33:28.199Z,99.90
2022-09-17T02:35:55.332Z,99.90
2022-09-17T02:38:28.992Z,99.90
2022-09-17T02:42:12.281Z,99.90
2022-09-17T02:45:48.999Z,99.90
2022-09-17T02:49:11.295Z,99.90
2022-09-17T02:52:16.850Z,99.90
2022-09-17T02:55:28.828Z,99.90
2022-09-17T02:58:21.278Z,99.90
2022-09-17T03:00:49.138Z,99.90
2022-09-17T03:03:44.174Z,99.90
2022-09-17T03:06:12.268Z,99.90
2022-09-17T03:08:42.536Z,99.90
2022-09-17T03:11:12.822Z,99.90
2022-09-17T03:13:40.077Z,99.90
2022-09-17T03:16:07.856Z,99.90
2022-09-17T03:18:34.998Z,99.90
2022-09-17T03:21:01.945Z,99.90
2022-09-17T03:23:28.945Z,99.90
2022-09-17T03:25:55.893Z,99.90
2022-09-17T03:28:22.992Z,99.90
2022-09-17T03:30:49.865Z,99.90
2022-09-17T03:33:16.925Z,99.90
2022-09-17T03:35:45.793Z,99.90
2022-09-17T03:38:14.158Z,99.90
2022-09-17T03:40:41.468Z,99.90
2022-09-17T03:43:09.092Z,99.90
2022-09-17T03:45:36.045Z,99.90
2022-09-17T03:48:03.441Z,99.90
2022-09-17T03:50:30.329Z,99.90
2022-09-17T03:52:57.273Z,99.90
2022-09-17T03:55:24.138Z,99.90
2022-09-17T03:57:51.247Z,99.90
2022-09-17T04:00:18.291Z,99.90
2022-09-17T04:02:45.227Z,99.90
2022-09-17T04:05:12.358Z,99.90
2022-09-17T04:07:41.095Z,99.90
2022-09-17T04:10:09.297Z,99.90
2022-09-17T04:12:36.710Z,99.90
2022-09-17T04:15:05.003Z,99.90
2022-09-17T04:17:32.410Z,99.90
2022-09-17T04:19:59.370Z,99.90
2022-09-17T04:22:26.911Z,99.90
2022-09-17T04:24:53.775Z,99.90
2022-09-17T04:27:20.742Z,99.90
2022-09-17T04:29:47.591Z,99.90
2022-09-17T04:32:14.567Z,99.90
2022-09-17T04:34:41.545Z,99.90
2022-09-17T04:37:08.711Z,99.90
2022-09-17T04:39:35.658Z,99.90
2022-09-17T04:42:02.525Z,99.90
2022-09-17T04:44:29.394Z,99.90
2022-09-17T04:46:56.321Z,99.90
2022-09-17T04:49:23.279Z,99.90
2022-09-17T04:51:50.200Z,99.90
2022-09-17T04:54:17.450Z,99.90
2022-09-17T04:56:44.420Z,99.90
2022-09-17T04:59:11.474Z,99.90
2022-09-17T05:01:38.336Z,99.90
2022-09-17T05:04:05.279Z,99.90
2022-09-17T05:06:32.171Z,99.90
2022-09-17T05:08:59.238Z,99.90
2022-09-17T05:11:26.206Z,99.90
2022-09-17T05:13:53.221Z,99.90
2022-09-17T05:16:20.314Z,99.90
2022-09-17T05:18:49.396Z,99.90
2022-09-17T05:21:16.339Z,99.90
2022-09-17T05:23:43.279Z,99.90
2022-09-17T05:26:10.404Z,99.90
2022-09-17T05:28:37.223Z,99.90
2022-09-17T05:31:04.241Z,99.90
2022-09-17T05:33:31.660Z,99.90
2022-09-17T05:35:59.740Z,99.90
2022-09-17T05:38:26.811Z,99.90
2022-09-17T05:40:53.799Z,99.90
2022-09-17T05:43:20.816Z,99.90
2022-09-17T05:45:48.175Z,99.90
2022-09-17T05:48:15.790Z,99.90
2022-09-17T05:50:42.936Z,99.90
2022-09-17T05:53:15.211Z,99.90
2022-09-17T05:55:42.056Z,99.90
2022-09-17T05:58:17.000Z,99.90
2022-09-17T06:00:46.476Z,99.90
2022-09-17T06:03:18.214Z,99.90
2022-09-17T06:05:59.310Z,99.90
2022-09-17T06:08:29.028Z,99.90
2022-09-17T06:11:01.509Z,99.90
2022-09-17T06:13:29.109Z,99.90
2022-09-17T06:15:56.015Z,99.90
2022-09-17T06:18:23.060Z,99.90
2022-09-17T06:21:03.601Z,99.90
2022-09-17T06:23:37.729Z,99.90
2022-09-17T06:26:06.585Z,99.90
2022-09-17T06:28:36.760Z,99.90
2022-09-17T06:31:10.124Z,99.90
2022-09-17T06:33:37.517Z,99.90
2022-09-17T06:36:13.716Z,99.90
2022-09-17T06:38:42.288Z,99.90
2022-09-17T06:41:09.409Z,99.90
2022-09-17T06:43:36.363Z,99.90
2022-09-17T06:46:06.157Z,99.90
2022-09-17T06:48:36.093Z,99.90
2022-09-17T06:51:10.745Z,99.90
2022-09-17T06:53:39.190Z,99.90
2022-09-17T06:56:09.441Z,99.90
2022-09-17T06:58:37.749Z,99.90
2022-09-17T07:01:05.827Z,99.90
2022-09-17T07:03:33.786Z,99.90
2022-09-17T07:06:00.785Z,99.90
2022-09-17T07:08:27.778Z,99.90
2022-09-17T07:10:58.811Z,99.90
2022-09-17T07:13:26.561Z,99.90
2022-09-17T07:16:01.811Z,99.90
2022-09-17T07:18:29.792Z,99.90
2022-09-17T07:21:06.630Z,99.90
2022-09-17T07:23:37.383Z,99.90
2022-09-17T07:26:14.174Z,99.90
2022-09-17T07:28:43.857Z,99.90
2022-09-17T07:31:16.381Z,99.90
2022-09-17T07:33:45.358Z,99.90
2022-09-17T07:36:17.815Z,99.90
2022-09-17T07:38:45.725Z,99.90
2022-09-17T07:41:17.314Z,99.90
2022-09-17T07:43:45.221Z,99.90
2022-09-17T07:46:20.568Z,99.90
2022-09-17T07:48:49.429Z,99.90
2022-09-17T07:51:29.722Z,99.90
2022-09-17T07:53:59.864Z,99.90
2022-09-17T07:56:28.465Z,99.90
2022-09-17T07:58:56.141Z,99.90
2022-09-17T08:04:00.919Z,99.90
2022-09-17T08:06:28.154Z,99.90
2022-09-17T08:08:57.806Z,99.90
2022-09-17T08:11:51.653Z,99.90
2022-09-17T08:14:16.082Z,99.90
2022-09-17T08:16:45.474Z,99.90
2022-09-17T08:19:12.381Z,99.90
2022-09-17T08:21:39.259Z,99.90
2022-09-17T08:24:06.837Z,99.90
2022-09-17T08:26:33.719Z,99.90
2022-09-17T08:29:00.725Z,99.90
2022-09-17T08:31:30.007Z,99.90
2022-09-17T08:33:57.727Z,99.90
2022-09-17T08:36:26.351Z,99.90
2022-09-17T08:38:56.231Z,99.90
2022-09-17T08:42:12.072Z,99.90
2022-09-17T08:44:50.730Z,99.90
2022-09-17T08:47:38.989Z,99.90
2022-09-17T08:50:19.090Z,99.90
2022-09-17T08:53:33.480Z,99.90
2022-09-17T08:56:16.310Z,99.90
2022-09-17T08:59:21.027Z,99.90
2022-09-17T09:02:19.544Z,99.90
2022-09-17T09:05:19.588Z,99.90
2022-09-17T09:08:05.439Z,99.90
2022-09-17T09:11:05.196Z,99.90
2022-09-17T09:13:48.948Z,99.90
2022-09-17T09:16:33.919Z,99.90
2022-09-17T09:19:14.432Z,99.90
2022-09-17T09:21:58.856Z,99.90
2022-09-17T09:24:40.769Z,99.90
2022-09-17T09:27:28.816Z,99.90
2022-09-17T09:30:16.808Z,99.90
2022-09-17T09:33:11.349Z,99.90
2022-09-17T09:35:44.091Z,99.90
2022-09-17T09:38:37.888Z,99.90
2022-09-17T09:41:45.670Z,99.90
2022-09-17T09:44:17.910Z,99.90
2022-09-17T09:47:05.654Z,99.90
2022-09-17T09:50:03.292Z,99.90
2022-09-17T09:53:12.330Z,99.90
2022-09-17T09:56:10.717Z,99.90
2022-09-17T09:58:41.443Z,99.90
2022-09-17T10:01:22.844Z,99.90
2022-09-17T10:03:53.941Z,99.90
2022-09-17T10:06:21.714Z,99.90
2022-09-17T10:08:57.386Z,99.90
2022-09-17T10:11:34.659Z,99.90
2022-09-17T10:14:26.758Z,99.90
2022-09-17T10:17:29.090Z,99.90
2022-09-17T10:20:10.402Z,99.90
2022-09-17T10:22:40.445Z,99.90
2022-09-17T10:25:31.426Z,99.90
2022-09-17T10:28:05.597Z,99.90
2022-09-17T10:30:32.905Z,99.90
2022-09-17T10:33:24.739Z,99.90
2022-09-17T10:36:16.089Z,99.90
2022-09-17T10:38:46.314Z,99.90
2022-09-17T10:41:21.584Z,99.90
2022-09-17T10:43:50.993Z,99.90
2022-09-17T10:46:33.619Z,99.90
2022-09-17T10:49:42.405Z,99.80
2022-09-17T10:52:31.270Z,99.90
2022-09-17T10:55:28.210Z,99.60
2022-09-17T10:58:07.193Z,99.90
2022-09-17T11:01:07.427Z,98.60
2022-09-17T11:04:15.922Z,99.90
2022-09-17T11:07:12.359Z,99.80
2022-09-17T11:10:15.295Z,98.20
2022-09-17T11:13:02.204Z,96.40
2022-09-17T11:16:13.599Z,97.30
2022-09-17T11:19:19.411Z,97.20
2022-09-17T11:22:03.826Z,99.10
2022-09-17T11:25:09.322Z,98.10
2022-09-17T11:28:13.563Z,97.60
2022-09-17T11:31:28.328Z,98.70
2022-09-17T11:34:50.915Z,99.90
2022-09-17T11:37:31.066Z,96.90
2022-09-17T11:40:29.683Z,96.10
2022-09-17T11:43:14.615Z,91.90
2022-09-17T11:46:04.980Z,90.80
2022-09-17T11:49:29.395Z,88.10
2022-09-17T11:52:19.572Z,83.30
2022-09-17T11:55:19.092Z,79.00
2022-09-17T11:57:51.833Z,74.80
2022-09-17T12:00:23.931Z,72.50
2022-09-17T12:03:20.629Z,67.80
2022-09-17T12:05:59.664Z,65.20
2022-09-17T12:09:15.589Z,66.20
2022-09-17T12:12:07.575Z,63.00
2022-09-17T12:14:53.924Z,67.90
2022-09-17T12:17:36.769Z,73.20
2022-09-17T12:20:20.939Z,76.50
2022-09-17T12:22:51.667Z,81.80
2022-09-17T12:25:18.652Z,89.40
2022-09-17T12:28:43.928Z,91.60
2022-09-17T12:32:14.528Z,88.00
2022-09-17T12:35:32.744Z,81.80
2022-09-17T12:38:52.063Z,75.70
2022-09-17T12:41:41.873Z,79.20
2022-09-17T12:45:15.672Z,78.90
2022-09-17T12:48:41.993Z,80.90
2022-09-17T12:51:46.156Z,80.60
2022-09-17T12:54:39.836Z,83.20
2022-09-17T12:58:16.134Z,82.10
2022-09-17T13:01:07.594Z,85.30
2022-09-17T13:04:43.674Z,85.60
2022-09-17T13:08:01.974Z,90.40
2022-09-17T13:11:25.990Z,94.60
2022-09-17T13:14:43.749Z,94.90
2022-09-17T13:18:12.342Z,93.20
2022-09-17T13:21:15.222Z,91.20
2022-09-17T13:23:49.541Z,91.80
2022-09-17T13:26:33.007Z,91.30
2022-09-17T13:28:59.986Z,90.50
2022-09-17T13:31:38.928Z,91.60
2022-09-17T13:34:17.953Z,92.50
2022-09-17T13:36:55.485Z,93.70
2022-09-17T13:39:46.253Z,93.80
2022-09-17T13:42:31.270Z,94.30
2022-09-17T13:45:16.165Z,94.70
2022-09-17T13:48:10.757Z,93.80
2022-09-17T13:50:44.837Z,94.10
2022-09-17T13:53:14.870Z,93.30
2022-09-17T13:56:00.939Z,91.70
2022-09-17T13:58:35.661Z,91.20
2022-09-17T14:01:07.684Z,91.10
2022-09-17T14:03:41.665Z,91.20
2022-09-17T14:06:08.556Z,92.20
2022-09-17T14:08:43.920Z,94.30
2022-09-17T14:11:22.672Z,98.10
2022-09-17T14:13:56.685Z,99.90
2022-09-17T14:16:33.660Z,99.90
2022-09-17T14:19:27.771Z,99.90
2022-09-17T14:22:26.602Z,99.90
2022-09-17T14:24:55.462Z,99.90
2022-09-17T14:27:58.251Z,99.90
2022-09-17T14:30:34.161Z,99.90
2022-09-17T14:33:00.937Z,99.90
2022-09-17T14:35:50.227Z,99.90
2022-09-17T14:38:45.581Z,99.90
2022-09-17T14:41:12.330Z,99.90
2022-09-17T14:44:12.431Z,99.90
2022-09-17T14:47:06.763Z,99.90
2022-09-17T14:49:40.947Z,99.90
2022-09-17T14:52:31.610Z,98.60
2022-09-17T14:55:25.159Z,94.30
2022-09-17T14:57:56.831Z,91.30
2022-09-17T15:00:32.755Z,90.70
2022-09-17T15:03:00.059Z,91.90
2022-09-17T15:05:50.427Z,94.00
2022-09-17T15:08:24.168Z,96.70
2022-09-17T15:11:03.815Z,99.30
2022-09-17T15:13:40.271Z,99.90
2022-09-17T15:16:30.655Z,99.90
2022-09-17T15:19:03.691Z,98.60
2022-09-17T15:21:41.620Z,96.10
2022-09-17T15:24:42.742Z,92.80
2022-09-17T15:27:45.541Z,90.50
2022-09-17T15:30:22.637Z,87.60
2022-09-17T15:32:58.920Z,85.00
2022-09-17T15:35:32.992Z,82.70
2022-09-17T15:38:23.121Z,83.10
2022-09-17T15:40:53.175Z,82.20
2022-09-17T15:43:33.577Z,82.60
2022-09-17T15:46:27.164Z,82.80
2022-09-17T15:48:58.764Z,80.60
2022-09-17T15:51:33.388Z,82.10
2022-09-17T15:54:05.616Z,84.50
2022-09-17T15:56:42.028Z,86.20
2022-09-17T15:59:44.432Z,89.40
2022-09-17T16:02:29.750Z,91.60
2022-09-17T16:05:25.360Z,92.10
2022-09-17T16:07:52.486Z,91.10
2022-09-17T16:10:19.948Z,89.10
2022-09-17T16:12:50.094Z,88.10
2022-09-17T16:15:17.409Z,89.30
2022-09-17T16:17:48.216Z,90.80
2022-09-17T16:20:25.396Z,92.80
2022-09-17T16:22:53.669Z,93.30
2022-09-17T16:25:28.661Z,93.30
2022-09-17T16:28:03.981Z,94.20
2022-09-17T16:30:30.963Z,95.30
2022-09-17T16:32:59.129Z,95.00
2022-09-17T16:35:26.750Z,95.20
2022-09-17T16:37:56.592Z,94.90
2022-09-17T16:40:29.608Z,94.10
2022-09-17T16:43:01.985Z,93.30
2022-09-17T16:45:31.073Z,92.60
2022-09-17T16:47:58.521Z,92.90
2022-09-17T16:50:25.861Z,92.90
2022-09-17T16:52:53.949Z,93.70
2022-09-17T16:55:21.809Z,94.60
2022-09-17T16:57:49.173Z,95.50
2022-09-17T17:00:21.053Z,97.10
2022-09-17T17:02:57.440Z,98.20
2022-09-17T17:05:27.246Z,99.90
2022-09-17T17:07:55.404Z,99.90
2022-09-17T17:10:26.354Z,99.90
2022-09-17T17:12:53.225Z,99.90
2022-09-17T17:15:22.318Z,99.90
2022-09-17T17:17:49.827Z,99.90
2022-09-17T17:20:17.066Z,99.90
2022-09-17T17:22:45.240Z,99.90
2022-09-17T17:25:14.730Z,99.90
2022-09-17T17:27:41.850Z,99.90
2022-09-17T17:30:16.620Z,99.90
2022-09-17T17:32:48.663Z,99.90
2022-09-17T17:35:15.882Z,99.90
2022-09-17T17:37:43.576Z,99.90
2022-09-17T17:40:10.880Z,99.90
2022-09-17T17:42:40.594Z,99.90
2022-09-17T17:45:08.770Z,99.90
2022-09-17T17:47:36.338Z,99.90
2022-09-17T17:50:04.210Z,99.90
2022-09-17T17:52:31.767Z,99.90
2022-09-17T17:54:58.666Z,99.90
2022-09-17T17:57:25.570Z,99.90
2022-09-17T17:59:52.416Z,99.90
2022-09-17T18:02:19.412Z,99.90
2022-09-17T18:04:46.467Z,99.90
2022-09-17T18:07:13.467Z,99.90
2022-09-17T18:09:40.423Z,99.90
2022-09-17T18:12:07.786Z,99.90
2022-09-17T18:14:34.859Z,99.90
2022-09-17T18:17:02.051Z,99.90
2022-09-17T18:19:28.907Z,99.90
2022-09-17T18:21:55.787Z,99.90
2022-09-17T18:24:22.747Z,99.90
2022-09-17T18:26:49.742Z,99.90
2022-09-17T18:29:16.640Z,99.90
2022-09-17T18:31:45.031Z,99.90
2022-09-17T18:34:16.577Z,99.90
2022-09-17T18:36:50.804Z,99.90
2022-09-17T18:42:07.641Z,99.90
2022-09-17T18:44:34.490Z,99.90
2022-09-17T18:47:01.646Z,99.90
2022-09-17T18:49:28.767Z,99.90
2022-09-17T18:51:55.652Z,99.90
2022-09-17T18:54:22.543Z,99.90
2022-09-17T18:56:49.379Z,99.90
2022-09-17T18:59:16.296Z,99.90
2022-09-17T19:01:43.149Z,99.90
2022-09-17T19:04:11.117Z,99.90
2022-09-17T19:06:38.031Z,99.90
2022-09-17T19:09:06.128Z,99.90
2022-09-17T19:11:36.224Z,99.90
2022-09-17T19:14:03.421Z,99.90
2022-09-17T19:16:30.451Z,99.90
2022-09-17T19:18:57.384Z,99.90
2022-09-17T19:21:24.200Z,99.90
2022-09-17T19:23:52.868Z,99.90
2022-09-17T19:26:27.161Z,99.90
2022-09-17T19:28:57.824Z,99.90
2022-09-17T19:31:27.067Z,99.90
2022-09-17T19:33:54.333Z,99.90
2022-09-17T19:36:21.285Z,99.90
2022-09-17T19:38:49.197Z,99.90
2022-09-17T19:41:25.097Z,99.90
2022-09-17T19:43:54.176Z,99.90
2022-09-17T19:46:26.833Z,99.90
2022-09-17T19:48:57.408Z,99.90
2022-09-17T19:51:29.724Z,99.90
2022-09-17T19:53:57.135Z,99.90
2022-09-17T19:56:27.890Z,99.90
2022-09-17T19:58:55.050Z,99.90
2022-09-17T20:01:22.170Z,99.90
2022-09-17T20:03:49.185Z,99.90
2022-09-17T20:06:20.589Z,99.90
2022-09-17T20:08:54.302Z,99.90
2022-09-17T20:11:25.305Z,99.90
2022-09-17T20:14:06.517Z,99.90
2022-09-17T20:16:37.421Z,99.90
2022-09-17T20:19:07.773Z,99.90
2022-09-17T20:21:35.011Z,99.90
2022-09-17T20:24:02.457Z,99.90
2022-09-17T20:26:29.412Z,99.90
2022-09-17T20:28:56.566Z,99.90
2022-09-17T20:31:29.138Z,99.90
2022-09-17T20:34:01.755Z,99.90
2022-09-17T20:36:33.908Z,99.90
2022-09-17T20:41:47.912Z,99.90
2022-09-17T20:44:14.893Z,99.90
2022-09-17T20:46:41.890Z,99.90
2022-09-17T20:49:09.220Z,99.90
2022-09-17T20:51:36.062Z,99.90
2022-09-17T20:54:03.985Z,99.90
2022-09-17T20:56:34.437Z,99.90
2022-09-17T20:59:14.124Z,99.90
2022-09-17T21:01:45.360Z,99.90
2022-09-17T21:04:19.163Z,99.90
2022-09-17T21:06:50.748Z,99.90
2022-09-17T21:09:17.627Z,99.90
2022-09-17T21:11:48.083Z,99.90
2022-09-17T21:14:17.267Z,99.90
2022-09-17T21:16:45.762Z,99.90
2022-09-17T21:19:15.916Z,99.90
2022-09-17T21:21:43.044Z,99.90
2022-09-17T21:24:10.212Z,99.90
2022-09-17T21:26:37.611Z,99.90
2022-09-17T21:29:04.930Z,99.90
2022-09-17T21:31:36.724Z,99.90
2022-09-17T21:34:09.685Z,99.90
2022-09-17T21:36:40.919Z,99.90
2022-09-17T21:39:17.816Z,99.90
2022-09-17T21:41:47.918Z,99.90
2022-09-17T21:44:15.803Z,99.90
2022-09-17T21:46:43.281Z,99.90
2022-09-17T21:49:11.284Z,99.90
2022-09-17T21:51:42.414Z,99.90
2022-09-17T21:54:15.195Z,99.90
2022-09-17T21:56:43.591Z,99.90
2022-09-17T21:59:15.143Z,99.90
2022-09-17T22:01:49.849Z,99.90
2022-09-17T22:04:21.985Z,99.90
2022-09-17T22:06:50.253Z,99.90
2022-09-17T22:09:25.299Z,99.90
2022-09-17T22:11:53.607Z,99.90
2022-09-17T22:14:24.536Z,99.90
2022-09-17T22:16:56.797Z,99.90
2022-09-17T22:19:25.887Z,99.90
2022-09-17T22:21:56.043Z,99.90
2022-09-17T22:24:24.704Z,99.90
2022-09-17T22:26:57.794Z,99.90
2022-09-17T22:29:31.330Z,99.90
2022-09-17T22:31:58.460Z,99.90
2022-09-17T22:34:26.325Z,99.90
2022-09-17T22:36:53.177Z,99.90
2022-09-17T22:39:23.270Z,99.90
2022-09-17T22:41:50.953Z,99.90
2022-09-17T22:44:20.603Z,99.90
2022-09-17T22:46:51.496Z,99.90
2022-09-17T22:49:20.237Z,99.90
2022-09-17T22:51:47.641Z,99.90
2022-09-17T22:54:18.432Z,99.90
2022-09-17T22:56:47.828Z,99.90
2022-09-17T22:59:15.201Z,99.90
2022-09-17T23:01:42.328Z,99.90
2022-09-17T23:04:09.704Z,99.90
2022-09-17T23:06:41.891Z,99.90
2022-09-17T23:09:08.876Z,99.90
2022-09-17T23:11:39.163Z,99.90
2022-09-17T23:14:12.480Z,99.90
2022-09-17T23:16:47.692Z,99.90
2022-09-17T23:19:18.265Z,99.90
2022-09-17T23:21:46.142Z,99.90
2022-09-17T23:24:20.837Z,99.90
2022-09-17T23:26:49.933Z,99.90
2022-09-17T23:29:18.321Z,99.90
2022-09-17T23:31:45.689Z,99.90
2022-09-17T23:34:12.685Z,99.90
2022-09-17T23:36:40.264Z,99.90
2022-09-17T23:39:11.353Z,99.90
2022-09-17T23:41:43.102Z,99.90
2022-09-17T23:44:15.379Z,99.90
2022-09-17T23:46:45.177Z,99.90
2022-09-17T23:49:14.728Z,99.90
2022-09-17T23:51:42.701Z,99.90
2022-09-17T23:54:10.098Z,99.90
2022-09-17T23:56:37.629Z,99.90
2022-09-17T23:59:04.951Z,99.90
